createdAt,value
2022-11-17T00:00:36.994Z,21.70
2022-11-17T00:03:03.538Z,22.13
2022-11-17T00:05:30.011Z,21.80
2022-11-17T00:07:56.492Z,21.33
2022-11-17T00:10:22.966Z,21.73
2022-11-17T00:13:07.878Z,20.63
2022-11-17T00:15:34.395Z,21.03
2022-11-17T00:18:19.571Z,20.97
2022-11-17T00:21:04.516Z,21.20
2022-11-17T00:23:46.103Z,22.87
2022-11-17T00:26:30.759Z,21.07
2022-11-17T00:29:06.185Z,19.77
2022-11-17T00:31:52.295Z,18.67
2022-11-17T00:34:21.475Z,19.13
2022-11-17T00:36:53.726Z,19.13
2022-11-17T00:39:23.022Z,19.43
2022-11-17T00:41:50.015Z,19.07
2022-11-17T00:44:16.593Z,18.30
2022-11-17T00:46:43.354Z,19.23
2022-11-17T00:49:11.475Z,19.00
2022-11-17T00:51:38.586Z,19.50
2022-11-17T00:54:07.099Z,17.73
2022-11-17T00:56:33.829Z,16.90
2022-11-17T00:59:00.441Z,16.27
2022-11-17T01:01:27.680Z,15.60
2022-11-17T01:04:01.951Z,14.00
2022-11-17T01:06:37.359Z,15.60
2022-11-17T01:09:21.448Z,16.50
2022-11-17T01:11:51.160Z,14.10
2022-11-17T01:14:22.134Z,15.67
2022-11-17T01:16:48.676Z,14.73
2022-11-17T01:19:16.626Z,11.53
2022-11-17T01:21:43.452Z,11.43
2022-11-17T01:24:11.777Z,10.13
2022-11-17T01:26:40.270Z,9.43
2022-11-17T01:29:10.077Z,10.20
2022-11-17T01:31:42.485Z,9.43
2022-11-17T01:34:09.792Z,9.03
2022-11-17T01:36:58.977Z,9.40
2022-11-17T01:39:28.228Z,10.47
2022-11-17T01:41:58.049Z,9.13
2022-11-17T01:46:44.375Z,9.40
2022-11-17T01:49:21.919Z,9.30
2022-11-17T01:52:02.838Z,8.83
2022-11-17T01:54:32.188Z,8.63
2022-11-17T01:57:09.487Z,8.33
2022-11-17T01:59:51.100Z,7.73
2022-11-17T02:02:19.256Z,7.63
2022-11-17T02:05:03.974Z,7.97
2022-11-17T02:07:35.894Z,7.03
2022-11-17T02:10:04.334Z,6.83
2022-11-17T02:12:34.615Z,7.43
2022-11-17T02:15:03.076Z,7.10
2022-11-17T02:17:40.105Z,6.63
2022-11-17T02:20:16.509Z,6.80
2022-11-17T02:25:51.172Z,6.03
2022-11-17T02:28:31.037Z,5.67
2022-11-17T02:33:36.205Z,5.23
2022-11-17T02:36:22.299Z,5.43
2022-11-17T02:39:19.218Z,4.03
2022-11-17T02:41:57.699Z,4.73
2022-11-17T02:44:56.866Z,4.40
2022-11-17T02:47:31.761Z,4.60
2022-11-17T02:50:09.655Z,4.50
2022-11-17T02:52:36.795Z,4.43
2022-11-17T02:55:09.976Z,4.27
2022-11-17T02:57:39.740Z,4.00
2022-11-17T03:00:14.049Z,4.23
2022-11-17T03:05:15.872Z,4.80
2022-11-17T03:09:24.884Z,3.00
2022-11-17T03:12:15.680Z,4.10
2022-11-17T03:15:22.918Z,3.40
2022-11-17T03:18:34.527Z,4.03
2022-11-17T03:23:59.079Z,3.37
2022-11-17T03:26:33.229Z,3.30
2022-11-17T03:29:01.894Z,3.53
2022-11-17T03:31:32.045Z,3.67
2022-11-17T03:34:03.153Z,3.60
2022-11-17T03:36:39.325Z,4.60
2022-11-17T03:39:22.969Z,3.93
2022-11-17T03:41:56.686Z,4.17
2022-11-17T03:44:28.547Z,4.07
2022-11-17T03:46:58.711Z,4.20
2022-11-17T03:49:46.825Z,3.53
2022-11-17T03:52:13.428Z,3.40
2022-11-17T03:54:40.952Z,2.97
2022-11-17T03:58:16.276Z,2.63
2022-11-17T04:00:45.889Z,2.50
2022-11-17T04:03:12.449Z,2.63
2022-11-17T04:05:38.901Z,2.70
2022-11-17T04:08:05.554Z,2.90
2022-11-17T04:12:34.855Z,2.73
2022-11-17T04:15:19.817Z,2.20
2022-11-17T04:17:46.384Z,2.60
2022-11-17T04:20:12.855Z,3.03
2022-11-17T04:22:39.294Z,2.80
2022-11-17T04:25:06.148Z,3.07
2022-11-17T04:27:50.777Z,3.60
2022-11-17T04:30:17.265Z,4.60
2022-11-17T04:32:43.735Z,5.13
2022-11-17T04:35:10.168Z,5.03
2022-11-17T04:37:36.700Z,4.27
2022-11-17T04:40:03.892Z,3.17
2022-11-17T04:42:30.348Z,3.60
2022-11-17T04:44:56.821Z,3.17
2022-11-17T04:47:23.271Z,3.23
2022-11-17T04:49:49.736Z,4.73
2022-11-17T04:52:16.204Z,3.40
2022-11-17T04:54:42.648Z,3.63
2022-11-17T04:57:09.120Z,3.93
2022-11-17T04:59:35.961Z,3.20
2022-11-17T05:02:05.891Z,3.47
2022-11-17T05:04:51.283Z,2.73
2022-11-17T05:07:17.798Z,4.47
2022-11-17T05:09:44.342Z,5.50
2022-11-17T05:12:28.854Z,5.80
2022-11-17T05:14:55.311Z,5.40
2022-11-17T05:17:21.759Z,5.43
2022-11-17T05:19:48.505Z,5.20
2022-11-17T05:22:39.042Z,4.97
2022-11-17T05:25:06.755Z,4.20
2022-11-17T05:27:34.138Z,5.10
2022-11-17T05:30:07.022Z,4.87
2022-11-17T05:32:33.476Z,4.67
2022-11-17T05:34:59.943Z,4.07
2022-11-17T05:37:26.402Z,4.57
2022-11-17T05:39:52.898Z,4.43
2022-11-17T05:42:19.429Z,4.73
2022-11-17T05:44:47.604Z,4.27
2022-11-17T05:47:14.051Z,5.03
2022-11-17T05:49:40.524Z,4.97
2022-11-17T05:52:06.988Z,5.27
2022-11-17T05:54:33.466Z,5.53
2022-11-17T05:57:08.866Z,5.77
2022-11-17T05:59:53.439Z,7.23
2022-11-17T06:02:33.382Z,5.80
2022-11-17T06:04:59.947Z,6.10
2022-11-17T06:07:26.474Z,5.10
2022-11-17T06:09:54.245Z,5.70
2022-11-17T06:12:20.737Z,5.93
2022-11-17T06:14:47.191Z,5.73
2022-11-17T06:17:37.056Z,4.80
2022-11-17T06:20:13.372Z,5.57
2022-11-17T06:22:42.909Z,5.90
2022-11-17T06:25:14.049Z,5.13
2022-11-17T06:27:41.026Z,5.67
2022-11-17T06:30:08.131Z,7.10
2022-11-17T06:32:39.001Z,6.13
2022-11-17T06:35:10.128Z,5.57
2022-11-17T06:37:36.758Z,6.00
2022-11-17T06:40:04.342Z,5.27
2022-11-17T06:42:49.104Z,4.60
2022-11-17T06:45:15.661Z,5.57
2022-11-17T06:47:42.117Z,6.67
2022-11-17T06:50:09.163Z,8.13
2022-11-17T06:52:35.610Z,7.73
2022-11-17T06:55:02.051Z,8.50
2022-11-17T06:57:29.709Z,7.80
2022-11-17T06:59:56.218Z,8.10
2022-11-17T07:02:22.691Z,8.87
2022-11-17T07:04:49.144Z,7.83
2022-11-17T07:07:15.720Z,8.30
2022-11-17T07:09:42.278Z,8.30
2022-11-17T07:12:08.846Z,9.00
2022-11-17T07:14:35.374Z,8.73
2022-11-17T07:17:01.840Z,7.83
2022-11-17T07:19:28.315Z,8.63
2022-11-17T07:21:54.802Z,8.57
2022-11-17T07:24:21.274Z,8.20
2022-11-17T07:26:47.796Z,8.20
2022-11-17T07:29:14.252Z,8.47
2022-11-17T07:31:40.725Z,7.20
2022-11-17T07:34:07.289Z,8.03
2022-11-17T07:36:33.779Z,8.03
2022-11-17T07:39:00.222Z,8.43
2022-11-17T07:41:26.685Z,8.00
2022-11-17T07:43:53.140Z,7.73
2022-11-17T07:46:19.619Z,6.50
2022-11-17T07:48:46.068Z,6.10
2022-11-17T07:51:13.301Z,6.30
2022-11-17T07:53:39.798Z,5.57
2022-11-17T07:56:10.137Z,5.03
2022-11-17T07:58:38.129Z,6.10
2022-11-17T08:01:14.403Z,4.87
2022-11-17T08:03:42.153Z,5.73
2022-11-17T08:06:09.244Z,6.33
2022-11-17T08:08:37.576Z,4.60
2022-11-17T08:11:11.233Z,4.40
2022-11-17T08:13:39.989Z,4.10
2022-11-17T08:16:08.658Z,4.60
2022-11-17T08:18:36.129Z,4.50
2022-11-17T08:21:13.126Z,5.07
2022-11-17T08:23:40.944Z,5.00
2022-11-17T08:26:10.932Z,5.00
2022-11-17T08:28:40.798Z,4.43
2022-11-17T08:31:07.871Z,4.77
2022-11-17T08:33:35.229Z,5.17
2022-11-17T08:36:07.103Z,5.57
2022-11-17T08:38:35.615Z,7.67
2022-11-17T08:41:06.775Z,8.13
2022-11-17T08:43:34.527Z,8.53
2022-11-17T08:46:01.845Z,8.60
2022-11-17T08:48:28.937Z,9.03
2022-11-17T08:50:55.451Z,8.87
2022-11-17T08:53:23.101Z,8.27
2022-11-17T08:55:51.005Z,8.77
2022-11-17T08:58:17.489Z,9.20
2022-11-17T09:00:45.959Z,8.20
2022-11-17T09:03:12.746Z,8.77
2022-11-17T09:05:46.453Z,9.23
2022-11-17T09:11:12.141Z,13.87
2022-11-17T09:13:39.392Z,12.80
2022-11-17T09:16:11.149Z,12.87
2022-11-17T09:18:41.650Z,13.90
2022-11-17T09:21:14.886Z,10.83
2022-11-17T09:23:42.221Z,10.90
2022-11-17T09:26:13.048Z,10.80
2022-11-17T09:28:40.924Z,9.70
2022-11-17T09:31:20.068Z,10.13
2022-11-17T09:33:46.863Z,8.90
2022-11-17T09:36:16.953Z,10.23
2022-11-17T09:38:43.975Z,9.87
2022-11-17T09:42:39.432Z,8.67
2022-11-17T09:45:20.335Z,7.30
2022-11-17T09:48:51.570Z,7.30
2022-11-17T09:51:23.717Z,8.03
2022-11-17T09:54:07.732Z,8.13
2022-11-17T09:56:34.708Z,7.93
2022-11-17T09:59:12.844Z,7.47
2022-11-17T10:01:39.462Z,7.83
2022-11-17T10:04:16.154Z,8.37
2022-11-17T10:06:50.284Z,8.10
2022-11-17T10:09:42.610Z,7.50
2022-11-17T10:12:23.553Z,7.37
2022-11-17T10:14:51.442Z,7.50
2022-11-17T10:17:18.183Z,7.43
2022-11-17T10:19:45.337Z,7.87
2022-11-17T10:22:42.619Z,6.93
2022-11-17T10:25:40.919Z,7.43
2022-11-17T10:28:23.227Z,8.20
2022-11-17T10:31:09.792Z,8.27
2022-11-17T10:33:48.865Z,7.70
2022-11-17T10:36:30.480Z,8.13
2022-11-17T10:38:59.744Z,7.93
2022-11-17T10:41:40.487Z,8.17
2022-11-17T10:44:29.049Z,8.17
2022-11-17T10:47:07.314Z,7.27
2022-11-17T10:49:39.616Z,7.10
2022-11-17T10:52:17.971Z,6.83
2022-11-17T10:54:44.774Z,7.13
2022-11-17T10:57:24.231Z,6.63
2022-11-17T10:59:58.567Z,6.90
2022-11-17T11:02:45.373Z,7.40
2022-11-17T11:05:18.099Z,6.90
2022-11-17T11:07:44.990Z,6.50
2022-11-17T11:10:29.393Z,6.97
2022-11-17T11:15:33.570Z,7.27
2022-11-17T11:18:00.219Z,7.10
2022-11-17T11:21:42.638Z,7.20
2022-11-17T11:25:59.873Z,7.20
2022-11-17T11:30:11.130Z,5.67
2022-11-17T11:37:15.110Z,6.50
2022-11-17T11:40:14.280Z,7.17
2022-11-17T11:45:26.013Z,6.93
2022-11-17T11:50:49.049Z,7.27
2022-11-17T11:54:00.967Z,8.17
2022-11-17T11:56:38.423Z,7.57
2022-11-17T11:59:20.415Z,7.67
2022-11-17T12:06:39.344Z,6.57
2022-11-17T12:12:00.250Z,7.30
2022-11-17T12:14:32.709Z,5.90
2022-11-17T12:17:22.669Z,5.67
2022-11-17T12:19:59.026Z,6.63
2022-11-17T12:23:59.920Z,7.97
2022-11-17T12:26:30.894Z,8.90
2022-11-17T12:29:28.489Z,8.97
2022-11-17T12:32:01.130Z,9.43
2022-11-17T12:34:36.403Z,9.27
2022-11-17T12:37:22.211Z,10.50
2022-11-17T12:40:40.843Z,9.73
2022-11-17T12:48:33.351Z,9.63
2022-11-17T12:51:51.679Z,8.93
2022-11-17T12:57:31.920Z,9.67
2022-11-17T13:00:21.323Z,9.53
2022-11-17T13:03:15.796Z,9.30
2022-11-17T13:05:42.412Z,9.80
2022-11-17T13:08:23.063Z,9.83
2022-11-17T13:10:50.825Z,9.67
2022-11-17T13:13:23.932Z,9.60
2022-11-17T13:15:55.117Z,8.63
2022-11-17T13:18:39.579Z,8.90
2022-11-17T13:21:31.622Z,9.40
2022-11-17T13:23:59.745Z,8.70
2022-11-17T13:26:37.197Z,9.27
2022-11-17T13:29:18.516Z,8.70
2022-11-17T13:31:45.897Z,8.90
2022-11-17T13:34:21.463Z,9.00
2022-11-17T13:37:00.888Z,8.80
2022-11-17T13:39:28.235Z,8.50
2022-11-17T13:41:57.354Z,9.07
2022-11-17T13:44:26.840Z,8.43
2022-11-17T13:46:53.361Z,7.57
2022-11-17T13:49:38.858Z,7.80
2022-11-17T13:54:30.803Z,7.70
2022-11-17T13:57:07.301Z,6.60
2022-11-17T13:59:38.692Z,8.20
2022-11-17T14:06:50.979Z,7.47
2022-11-17T14:09:18.809Z,7.27
2022-11-17T14:11:45.518Z,7.97
2022-11-17T14:14:14.689Z,8.60
2022-11-17T14:16:41.723Z,8.97
2022-11-17T14:22:31.969Z,8.57
2022-11-17T14:24:58.585Z,7.90
2022-11-17T14:27:42.909Z,8.03
2022-11-17T14:30:12.704Z,8.83
2022-11-17T14:32:39.495Z,8.73
2022-11-17T14:35:07.179Z,9.30
2022-11-17T14:37:33.697Z,9.63
2022-11-17T14:40:02.962Z,9.20
2022-11-17T14:42:34.711Z,9.57
2022-11-17T14:45:03.075Z,9.23
2022-11-17T14:47:29.605Z,10.37
2022-11-17T14:49:56.070Z,9.30
2022-11-17T14:52:22.547Z,9.53
2022-11-17T14:54:49.028Z,9.80
2022-11-17T14:57:15.545Z,9.27
2022-11-17T14:59:42.068Z,9.40
2022-11-17T15:02:11.034Z,9.17
2022-11-17T15:04:55.556Z,9.17
2022-11-17T15:07:22.711Z,9.60
2022-11-17T15:09:49.281Z,9.27
2022-11-17T15:12:15.828Z,10.57
2022-11-17T15:14:42.451Z,9.57
2022-11-17T15:17:13.835Z,10.27
2022-11-17T15:19:41.076Z,9.93
2022-11-17T15:22:07.715Z,8.73
2022-11-17T15:24:34.201Z,8.90
2022-11-17T15:27:00.689Z,8.27
2022-11-17T15:29:27.144Z,7.90
2022-11-17T15:31:53.703Z,7.90
2022-11-17T15:34:20.772Z,8.83
2022-11-17T15:36:48.590Z,8.43
2022-11-17T15:39:15.727Z,8.50
2022-11-17T15:41:42.807Z,8.90
2022-11-17T15:44:09.551Z,7.10
2022-11-17T15:46:36.116Z,7.03
2022-11-17T15:49:02.742Z,7.20
2022-11-17T15:51:29.324Z,7.13
2022-11-17T15:53:58.867Z,7.80
2022-11-17T15:56:36.129Z,8.30
2022-11-17T15:59:05.262Z,7.73
2022-11-17T16:01:37.441Z,7.63
2022-11-17T16:04:17.204Z,7.87
2022-11-17T16:06:46.179Z,7.60
2022-11-17T16:09:14.236Z,7.10
2022-11-17T16:11:41.089Z,6.80
2022-11-17T16:14:08.290Z,6.37
2022-11-17T16:16:37.825Z,8.07
2022-11-17T16:19:05.449Z,8.07
2022-11-17T16:21:31.993Z,7.77
2022-11-17T16:24:00.104Z,8.50
2022-11-17T16:26:28.391Z,8.63
2022-11-17T16:29:01.014Z,10.27
2022-11-17T16:31:31.059Z,10.57
2022-11-17T16:34:09.913Z,12.03
2022-11-17T16:36:39.841Z,8.47
2022-11-17T16:39:17.067Z,8.07
2022-11-17T16:41:45.323Z,9.13
2022-11-17T16:44:15.541Z,7.90
2022-11-17T16:46:48.916Z,9.13
2022-11-17T16:49:18.787Z,9.10
2022-11-17T16:51:51.767Z,7.50
2022-11-17T16:54:19.560Z,7.77
2022-11-17T16:56:46.304Z,8.13
2022-11-17T16:59:13.131Z,8.00
2022-11-17T17:01:39.689Z,7.73
2022-11-17T17:04:09.382Z,8.30
2022-11-17T17:06:39.223Z,9.33
2022-11-17T17:09:08.949Z,9.27
2022-11-17T17:11:36.713Z,9.80
2022-11-17T17:14:06.022Z,8.67
2022-11-17T17:16:34.968Z,8.80
2022-11-17T17:19:04.908Z,8.30
2022-11-17T17:21:32.509Z,8.30
2022-11-17T17:23:59.728Z,7.53
2022-11-17T17:26:29.777Z,8.40
2022-11-17T17:28:59.470Z,8.00
2022-11-17T17:31:31.561Z,8.03
2022-11-17T17:34:01.376Z,8.30
2022-11-17T17:36:28.520Z,8.00
2022-11-17T17:38:58.184Z,8.70
2022-11-17T17:41:28.487Z,8.23
2022-11-17T17:44:05.092Z,8.50
2022-11-17T17:46:37.178Z,8.40
2022-11-17T17:49:04.651Z,8.23
2022-11-17T17:51:31.146Z,10.13
2022-11-17T17:54:01.297Z,9.13
2022-11-17T17:56:29.671Z,10.07
2022-11-17T17:58:57.287Z,8.87
2022-11-17T18:01:27.460Z,9.60
2022-11-17T18:04:03.721Z,9.93
2022-11-17T18:06:40.690Z,11.80
2022-11-17T18:09:09.964Z,10.43
2022-11-17T18:11:37.029Z,9.30
2022-11-17T18:14:04.198Z,10.57
2022-11-17T18:16:32.942Z,9.27
2022-11-17T18:19:03.355Z,12.80
2022-11-17T18:21:30.625Z,16.47
2022-11-17T18:23:59.878Z,17.03
2022-11-17T18:26:33.087Z,18.10
2022-11-17T18:29:12.622Z,17.30
2022-11-17T18:31:39.112Z,16.67
2022-11-17T18:34:20.214Z,16.87
2022-11-17T18:36:48.346Z,16.13
2022-11-17T18:39:15.871Z,14.57
2022-11-17T18:41:43.265Z,14.17
2022-11-17T18:44:18.677Z,13.97
2022-11-17T18:46:45.881Z,9.07
2022-11-17T18:49:12.404Z,7.70
2022-11-17T18:51:38.897Z,7.93
2022-11-17T18:54:05.421Z,8.37
2022-11-17T18:56:35.137Z,7.80
2022-11-17T18:59:02.161Z,8.03
2022-11-17T19:01:29.924Z,8.73
2022-11-17T19:04:00.288Z,7.83
2022-11-17T19:06:27.123Z,8.40
2022-11-17T19:08:54.368Z,8.30
2022-11-17T19:11:22.912Z,9.43
2022-11-17T19:13:49.689Z,9.77
2022-11-17T19:16:25.395Z,9.67
2022-11-17T19:18:55.384Z,9.93
2022-11-17T19:21:32.898Z,9.47
2022-11-17T19:24:02.767Z,11.70
2022-11-17T19:26:32.642Z,11.00
2022-11-17T19:29:02.870Z,10.40
2022-11-17T19:31:29.947Z,9.97
2022-11-17T19:33:57.456Z,9.33
2022-11-17T19:36:28.605Z,9.67
2022-11-17T19:38:57.463Z,12.00
2022-11-17T19:41:30.759Z,9.53
2022-11-17T19:44:00.510Z,8.13
2022-11-17T19:46:28.302Z,8.63
2022-11-17T19:48:56.410Z,9.37
2022-11-17T19:51:31.646Z,8.67
2022-11-17T19:54:04.632Z,9.13
2022-11-17T19:56:31.266Z,10.13
2022-11-17T19:58:57.850Z,9.63
2022-11-17T20:01:27.258Z,9.30
2022-11-17T20:03:55.675Z,10.43
2022-11-17T20:06:26.589Z,11.00
2022-11-17T20:08:53.762Z,10.13
2022-11-17T20:11:26.522Z,10.00
2022-11-17T20:13:55.074Z,9.43
2022-11-17T20:16:26.284Z,9.53
2022-11-17T20:18:57.936Z,8.90
2022-11-17T20:21:30.087Z,9.53
2022-11-17T20:23:58.493Z,8.63
2022-11-17T20:26:28.678Z,9.27
2022-11-17T20:28:56.511Z,10.93
2022-11-17T20:31:26.210Z,10.73
2022-11-17T20:33:56.854Z,9.17
2022-11-17T20:36:23.977Z,8.03
2022-11-17T20:38:55.181Z,9.13
2022-11-17T20:41:22.571Z,16.67
2022-11-17T20:43:51.899Z,17.70
2022-11-17T20:46:19.605Z,10.73
2022-11-17T20:48:47.043Z,9.20
2022-11-17T20:51:19.908Z,10.73
2022-11-17T20:53:46.627Z,11.67
2022-11-17T20:56:15.681Z,14.40
2022-11-17T20:58:43.169Z,28.70
2022-11-17T21:01:16.182Z,15.20
2022-11-17T21:03:43.115Z,12.03
2022-11-17T21:06:10.370Z,11.10
2022-11-17T21:08:39.319Z,9.63
2022-11-17T21:11:09.936Z,9.00
2022-11-17T21:13:37.051Z,10.07
2022-11-17T21:16:13.973Z,10.40
2022-11-17T21:18:47.321Z,9.93
2022-11-17T21:21:15.036Z,11.17
2022-11-17T21:23:43.186Z,12.17
2022-11-17T21:26:18.399Z,10.70
2022-11-17T21:28:46.006Z,11.47
2022-11-17T21:31:28.184Z,12.13
2022-11-17T21:34:01.286Z,12.43
2022-11-17T21:36:30.448Z,17.40
2022-11-17T21:38:57.792Z,16.00
2022-11-17T21:41:34.570Z,11.23
2022-11-17T21:44:02.847Z,10.90
2022-11-17T21:46:32.708Z,9.57
2022-11-17T21:49:00.532Z,8.90
2022-11-17T21:51:37.528Z,8.93
2022-11-17T21:54:08.180Z,9.40
2022-11-17T21:56:35.400Z,11.37
2022-11-17T21:59:10.566Z,10.90
2022-11-17T22:01:37.868Z,12.80
2022-11-17T22:04:04.586Z,13.07
2022-11-17T22:06:31.579Z,11.83
2022-11-17T22:08:59.333Z,9.83
2022-11-17T22:11:34.776Z,9.03
2022-11-17T22:14:22.794Z,10.13
2022-11-17T22:16:52.047Z,9.90
2022-11-17T22:19:21.130Z,10.20
2022-11-17T22:21:51.014Z,9.53
2022-11-17T22:24:18.690Z,9.03
2022-11-17T22:26:45.758Z,10.67
2022-11-17T22:29:19.385Z,10.47
2022-11-17T22:31:47.879Z,10.93
2022-11-17T22:34:15.075Z,10.30
2022-11-17T22:36:41.614Z,10.37
2022-11-17T22:39:08.616Z,9.67
2022-11-17T22:41:35.144Z,9.63
2022-11-17T22:44:02.058Z,11.07
2022-11-17T22:46:28.703Z,10.53
2022-11-17T22:48:55.463Z,9.40
2022-11-17T22:51:40.395Z,10.03
2022-11-17T22:54:07.874Z,9.90
2022-11-17T22:56:35.395Z,9.60
2022-11-17T22:59:01.986Z,10.43
2022-11-17T23:01:28.859Z,9.37
2022-11-17T23:03:55.381Z,8.90
2022-11-17T23:06:21.995Z,8.63
2022-11-17T23:08:48.467Z,8.70
2022-11-17T23:11:36.051Z,8.50
2022-11-17T23:14:04.305Z,8.20
2022-11-17T23:16:32.221Z,8.10
2022-11-17T23:18:58.833Z,9.10
2022-11-17T23:21:25.299Z,8.13
2022-11-17T23:23:53.202Z,8.40
2022-11-17T23:26:19.869Z,8.93
2022-11-17T23:28:46.429Z,8.63
2022-11-17T23:31:15.364Z,8.13
2022-11-17T23:33:45.043Z,8.90
2022-11-17T23:36:20.371Z,8.90
2022-11-17T23:38:48.618Z,8.67
2022-11-17T23:41:18.660Z,8.10
2022-11-17T23:43:45.529Z,9.17
2022-11-17T23:46:16.412Z,8.00
2022-11-17T23:48:43.846Z,8.07
2022-11-17T23:51:14.706Z,8.30
2022-11-17T23:53:41.687Z,9.07
2022-11-17T23:56:09.573Z,8.20
2022-11-17T23:58:36.245Z,8.43
